sensor_id;sensor_type;location;lat;lon;timestamp;pressure;altitude;pressure_sealevel;temperature;humidity
23679;BME280;12016;51.668;6.874;2022-12-07T00:04:03;101560.91;;;6.95;100.00
23679;BME280;12016;51.668;6.874;2022-12-07T00:10:06;101560.03;;;7.03;100.00
23679;BME280;12016;51.668;6.874;2022-12-07T00:16:16;101559.84;;;7.08;100.00
23679;BME280;12016;51.668;6.874;2022-12-07T00:22:18;101562.66;;;6.99;100.00
23679;BME280;12016;51.668;6.874;2022-12-07T00:28:20;101544.38;;;7.15;100.00
23679;BME280;12016;51.668;6.874;2022-12-07T00:34:22;101553.66;;;7.11;100.00
23679;BME280;12016;51.668;6.874;2022-12-07T00:40:24;101546.59;;;7.22;100.00
23679;BME280;12016;51.668;6.874;2022-12-07T00:46:26;101550.84;;;7.19;100.00
23679;BME280;12016;51.668;6.874;2022-12-07T00:52:28;101537.28;;;7.14;100.00
23679;BME280;12016;51.668;6.874;2022-12-07T00:58:29;101529.75;;;7.03;100.00
23679;BME280;12016;51.668;6.874;2022-12-07T01:04:33;101535.13;;;6.99;100.00
23679;BME280;12016;51.668;6.874;2022-12-07T01:10:35;101527.59;;;7.08;100.00
23679;BME280;12016;51.668;6.874;2022-12-07T01:16:38;101526.66;;;7.04;100.00
23679;BME280;12016;51.668;6.874;2022-12-07T01:22:41;101542.31;;;7.12;100.00
23679;BME280;12016;51.668;6.874;2022-12-07T01:28:43;101532.53;;;7.15;100.00
23679;BME280;12016;51.668;6.874;2022-12-07T01:34:47;101538.94;;;7.07;100.00
23679;BME280;12016;51.668;6.874;2022-12-07T01:40:54;101545.94;;;7.04;100.00
23679;BME280;12016;51.668;6.874;2022-12-07T01:46:58;101538.50;;;7.05;100.00
23679;BME280;12016;51.668;6.874;2022-12-07T01:53:02;101528.59;;;7.04;100.00
23679;BME280;12016;51.668;6.874;2022-12-07T01:59:05;101532.09;;;6.92;100.00
23679;BME280;12016;51.668;6.874;2022-12-07T02:05:07;101531.44;;;6.74;100.00
23679;BME280;12016;51.668;6.874;2022-12-07T02:11:09;101528.41;;;6.67;100.00
23679;BME280;12016;51.668;6.874;2022-12-07T02:17:20;101519.69;;;6.65;100.00
23679;BME280;12016;51.668;6.874;2022-12-07T02:24:00;101515.72;;;6.54;100.00
23679;BME280;12016;51.668;6.874;2022-12-07T02:30:08;101522.38;;;6.53;100.00
23679;BME280;12016;51.668;6.874;2022-12-07T02:36:17;101517.38;;;6.47;100.00
23679;BME280;12016;51.668;6.874;2022-12-07T02:42:26;101529.59;;;6.37;100.00
23679;BME280;12016;51.668;6.874;2022-12-07T02:48:33;101519.44;;;6.29;100.00
23679;BME280;12016;51.668;6.874;2022-12-07T02:54:37;101517.06;;;6.19;100.00
23679;BME280;12016;51.668;6.874;2022-12-07T03:00:48;101520.88;;;6.06;100.00
23679;BME280;12016;51.668;6.874;2022-12-07T03:07:00;101523.97;;;5.96;100.00
23679;BME280;12016;51.668;6.874;2022-12-07T03:13:23;101528.63;;;6.04;100.00
23679;BME280;12016;51.668;6.874;2022-12-07T03:19:30;101537.38;;;5.98;100.00
23679;BME280;12016;51.668;6.874;2022-12-07T03:25:37;101525.78;;;5.92;100.00
23679;BME280;12016;51.668;6.874;2022-12-07T03:31:48;101523.50;;;5.94;100.00
23679;BME280;12016;51.668;6.874;2022-12-07T03:37:57;101511.91;;;5.80;100.00
23679;BME280;12016;51.668;6.874;2022-12-07T03:44:00;101517.22;;;5.94;100.00
23679;BME280;12016;51.668;6.874;2022-12-07T03:56:19;101515.75;;;5.88;100.00
23679;BME280;12016;51.668;6.874;2022-12-07T04:02:23;101506.06;;;5.82;100.00
23679;BME280;12016;51.668;6.874;2022-12-07T04:08:26;101519.50;;;5.83;100.00
23679;BME280;12016;51.668;6.874;2022-12-07T04:14:28;101506.75;;;5.70;100.00
23679;BME280;12016;51.668;6.874;2022-12-07T04:20:30;101512.06;;;5.75;100.00
23679;BME280;12016;51.668;6.874;2022-12-07T04:26:31;101510.28;;;5.79;100.00
23679;BME280;12016;51.668;6.874;2022-12-07T04:32:33;101505.59;;;5.71;100.00
23679;BME280;12016;51.668;6.874;2022-12-07T04:38:35;101509.34;;;5.84;100.00
23679;BME280;12016;51.668;6.874;2022-12-07T04:44:37;101505.44;;;5.76;100.00
23679;BME280;12016;51.668;6.874;2022-12-07T04:50:39;101498.22;;;5.63;100.00
23679;BME280;12016;51.668;6.874;2022-12-07T04:56:45;101502.88;;;5.71;100.00
23679;BME280;12016;51.668;6.874;2022-12-07T05:02:47;101497.19;;;5.76;100.00
23679;BME280;12016;51.668;6.874;2022-12-07T05:08:49;101497.06;;;5.73;100.00
23679;BME280;12016;51.668;6.874;2022-12-07T05:14:51;101495.06;;;5.82;100.00
23679;BME280;12016;51.668;6.874;2022-12-07T05:20:54;101506.06;;;5.90;100.00
23679;BME280;12016;51.668;6.874;2022-12-07T05:26:56;101504.31;;;5.86;100.00
23679;BME280;12016;51.668;6.874;2022-12-07T05:32:58;101495.59;;;5.84;100.00
23679;BME280;12016;51.668;6.874;2022-12-07T05:39:00;101515.31;;;5.86;100.00
23679;BME280;12016;51.668;6.874;2022-12-07T05:45:02;101502.06;;;5.79;100.00
23679;BME280;12016;51.668;6.874;2022-12-07T05:51:04;101499.16;;;5.76;100.00
23679;BME280;12016;51.668;6.874;2022-12-07T05:57:06;101498.81;;;5.77;100.00
23679;BME280;12016;51.668;6.874;2022-12-07T06:03:08;101502.19;;;5.83;100.00
23679;BME280;12016;51.668;6.874;2022-12-07T06:09:10;101492.22;;;5.70;100.00
23679;BME280;12016;51.668;6.874;2022-12-07T06:15:12;101485.25;;;5.72;100.00
23679;BME280;12016;51.668;6.874;2022-12-07T06:21:14;101492.03;;;5.83;100.00
23679;BME280;12016;51.668;6.874;2022-12-07T06:27:16;101489.63;;;5.73;100.00
23679;BME280;12016;51.668;6.874;2022-12-07T06:33:19;101492.44;;;5.56;100.00
23679;BME280;12016;51.668;6.874;2022-12-07T06:39:24;101493.09;;;5.53;100.00
23679;BME280;12016;51.668;6.874;2022-12-07T06:45:26;101501.19;;;5.41;100.00
23679;BME280;12016;51.668;6.874;2022-12-07T06:51:28;101503.78;;;5.46;100.00
23679;BME280;12016;51.668;6.874;2022-12-07T06:57:30;101507.19;;;5.43;100.00
23679;BME280;12016;51.668;6.874;2022-12-07T07:03:32;101513.13;;;5.45;100.00
23679;BME280;12016;51.668;6.874;2022-12-07T07:09:35;101506.16;;;5.56;100.00
23679;BME280;12016;51.668;6.874;2022-12-07T07:15:37;101509.34;;;5.67;100.00
23679;BME280;12016;51.668;6.874;2022-12-07T07:21:40;101495.06;;;5.35;100.00
23679;BME280;12016;51.668;6.874;2022-12-07T07:27:43;101511.66;;;5.56;100.00
23679;BME280;12016;51.668;6.874;2022-12-07T07:33:46;101512.78;;;5.55;100.00
23679;BME280;12016;51.668;6.874;2022-12-07T07:39:48;101510.88;;;5.38;100.00
23679;BME280;12016;51.668;6.874;2022-12-07T07:45:50;101517.34;;;5.34;100.00
23679;BME280;12016;51.668;6.874;2022-12-07T07:51:52;101516.56;;;5.33;100.00
23679;BME280;12016;51.668;6.874;2022-12-07T07:57:54;101513.00;;;5.33;100.00
23679;BME280;12016;51.668;6.874;2022-12-07T08:03:56;101525.75;;;5.46;100.00
23679;BME280;12016;51.668;6.874;2022-12-07T08:09:58;101527.97;;;5.61;100.00
23679;BME280;12016;51.668;6.874;2022-12-07T08:16:09;101525.41;;;5.56;100.00
23679;BME280;12016;51.668;6.874;2022-12-07T08:22:11;101525.41;;;5.56;100.00
23679;BME280;12016;51.668;6.874;2022-12-07T08:28:13;101534.22;;;5.70;100.00
23679;BME280;12016;51.668;6.874;2022-12-07T08:34:15;101541.50;;;5.83;100.00
23679;BME280;12016;51.668;6.874;2022-12-07T08:40:17;101540.81;;;5.86;100.00
23679;BME280;12016;51.668;6.874;2022-12-07T08:46:37;101531.53;;;6.08;100.00
23679;BME280;12016;51.668;6.874;2022-12-07T08:52:41;101540.00;;;6.23;100.00
23679;BME280;12016;51.668;6.874;2022-12-07T08:58:44;101531.75;;;6.23;100.00
23679;BME280;12016;51.668;6.874;2022-12-07T09:04:46;101536.28;;;6.28;100.00
23679;BME280;12016;51.668;6.874;2022-12-07T09:10:50;101531.19;;;6.38;100.00
23679;BME280;12016;51.668;6.874;2022-12-07T09:16:52;101525.28;;;6.28;100.00
23679;BME280;12016;51.668;6.874;2022-12-07T09:22:55;101526.34;;;6.35;100.00
23679;BME280;12016;51.668;6.874;2022-12-07T09:28:57;101528.09;;;6.40;100.00
23679;BME280;12016;51.668;6.874;2022-12-07T09:34:59;101524.81;;;6.46;100.00
23679;BME280;12016;51.668;6.874;2022-12-07T09:41:06;101524.16;;;6.49;100.00
23679;BME280;12016;51.668;6.874;2022-12-07T09:47:09;101521.53;;;6.53;100.00
23679;BME280;12016;51.668;6.874;2022-12-07T09:53:30;101523.19;;;7.28;100.00
23679;BME280;12016;51.668;6.874;2022-12-07T09:59:35;101489.94;;;9.91;100.00
23679;BME280;12016;51.668;6.874;2022-12-07T10:05:44;101477.66;;;9.02;100.00
23679;BME280;12016;51.668;6.874;2022-12-07T10:12:07;101490.94;;;8.21;100.00
23679;BME280;12016;51.668;6.874;2022-12-07T10:24:22;101481.75;;;8.53;100.00
23679;BME280;12016;51.668;6.874;2022-12-07T10:30:24;101475.09;;;8.06;100.00
23679;BME280;12016;51.668;6.874;2022-12-07T10:42:31;101468.91;;;7.97;100.00
23679;BME280;12016;51.668;6.874;2022-12-07T11:01:45;101442.72;;;8.94;100.00
23679;BME280;12016;51.668;6.874;2022-12-07T11:14:36;101427.81;;;8.83;100.00
23679;BME280;12016;51.668;6.874;2022-12-07T11:20:50;101419.75;;;8.63;100.00
23679;BME280;12016;51.668;6.874;2022-12-07T11:45:26;101399.66;;;9.36;100.00
23679;BME280;12016;51.668;6.874;2022-12-07T11:51:33;101396.03;;;9.32;100.00
23679;BME280;12016;51.668;6.874;2022-12-07T11:57:42;101385.28;;;9.15;100.00
23679;BME280;12016;51.668;6.874;2022-12-07T12:03:50;101371.50;;;9.46;100.00
23679;BME280;12016;51.668;6.874;2022-12-07T12:10:06;101372.66;;;9.45;100.00
23679;BME280;12016;51.668;6.874;2022-12-07T12:16:20;101376.75;;;9.51;100.00
23679;BME280;12016;51.668;6.874;2022-12-07T12:22:35;101368.91;;;10.04;100.00
23679;BME280;12016;51.668;6.874;2022-12-07T12:28:52;101363.47;;;9.57;100.00
23679;BME280;12016;51.668;6.874;2022-12-07T12:41:06;101363.56;;;9.14;100.00
23679;BME280;12016;51.668;6.874;2022-12-07T12:47:40;101354.34;;;8.94;100.00
23679;BME280;12016;51.668;6.874;2022-12-07T12:53:42;101348.81;;;8.79;100.00
23679;BME280;12016;51.668;6.874;2022-12-07T13:06:19;101349.28;;;8.53;100.00
23679;BME280;12016;51.668;6.874;2022-12-07T13:12:21;101357.97;;;8.40;100.00
23679;BME280;12016;51.668;6.874;2022-12-07T13:24:32;101343.56;;;8.89;100.00
23679;BME280;12016;51.668;6.874;2022-12-07T13:30:47;101330.56;;;9.36;100.00
23679;BME280;12016;51.668;6.874;2022-12-07T13:36:50;101314.53;;;9.57;100.00
23679;BME280;12016;51.668;6.874;2022-12-07T13:43:00;101307.56;;;9.63;100.00
23679;BME280;12016;51.668;6.874;2022-12-07T13:49:02;101301.47;;;9.74;100.00
23679;BME280;12016;51.668;6.874;2022-12-07T14:01:06;101287.59;;;9.54;100.00
23679;BME280;12016;51.668;6.874;2022-12-07T14:07:48;101279.69;;;9.22;100.00
23679;BME280;12016;51.668;6.874;2022-12-07T14:13:59;101267.16;;;9.24;100.00
23679;BME280;12016;51.668;6.874;2022-12-07T14:20:02;101274.47;;;9.01;100.00
23679;BME280;12016;51.668;6.874;2022-12-07T14:26:19;101266.97;;;8.86;100.00
23679;BME280;12016;51.668;6.874;2022-12-07T14:38:25;101266.69;;;8.60;100.00
23679;BME280;12016;51.668;6.874;2022-12-07T14:44:29;101267.78;;;8.28;100.00
23679;BME280;12016;51.668;6.874;2022-12-07T14:50:39;101263.91;;;8.17;100.00
23679;BME280;12016;51.668;6.874;2022-12-07T14:57:01;101256.13;;;8.07;100.00
23679;BME280;12016;51.668;6.874;2022-12-07T15:03:03;101258.63;;;8.12;100.00
23679;BME280;12016;51.668;6.874;2022-12-07T15:09:05;101249.91;;;8.10;100.00
23679;BME280;12016;51.668;6.874;2022-12-07T15:15:08;101255.16;;;7.87;100.00
23679;BME280;12016;51.668;6.874;2022-12-07T15:21:14;101249.78;;;7.79;100.00
23679;BME280;12016;51.668;6.874;2022-12-07T15:27:16;101244.75;;;7.69;100.00
23679;BME280;12016;51.668;6.874;2022-12-07T15:33:17;101239.22;;;7.69;100.00
23679;BME280;12016;51.668;6.874;2022-12-07T15:39:20;101238.81;;;7.55;100.00
23679;BME280;12016;51.668;6.874;2022-12-07T15:45:23;101251.91;;;7.46;100.00
23679;BME280;12016;51.668;6.874;2022-12-07T15:51:25;101248.03;;;7.47;100.00
23679;BME280;12016;51.668;6.874;2022-12-07T15:57:27;101242.72;;;7.54;100.00
23679;BME280;12016;51.668;6.874;2022-12-07T16:03:28;101245.22;;;7.59;100.00
23679;BME280;12016;51.668;6.874;2022-12-07T16:09:30;101247.56;;;7.57;100.00
23679;BME280;12016;51.668;6.874;2022-12-07T16:15:32;101239.63;;;7.55;100.00
23679;BME280;12016;51.668;6.874;2022-12-07T16:21:34;101237.00;;;7.47;100.00
23679;BME280;12016;51.668;6.874;2022-12-07T16:27:38;101228.63;;;7.55;100.00
23679;BME280;12016;51.668;6.874;2022-12-07T16:33:42;101235.72;;;7.56;100.00
23679;BME280;12016;51.668;6.874;2022-12-07T16:39:44;101227.13;;;7.46;100.00
23679;BME280;12016;51.668;6.874;2022-12-07T16:45:47;101231.72;;;7.30;100.00
23679;BME280;12016;51.668;6.874;2022-12-07T16:51:50;101228.28;;;7.45;100.00
23679;BME280;12016;51.668;6.874;2022-12-07T16:57:59;101217.50;;;7.28;100.00
23679;BME280;12016;51.668;6.874;2022-12-07T17:04:01;101210.88;;;7.17;100.00
23679;BME280;12016;51.668;6.874;2022-12-07T17:10:04;101201.13;;;7.07;100.00
23679;BME280;12016;51.668;6.874;2022-12-07T17:16:06;101196.78;;;6.94;100.00
23679;BME280;12016;51.668;6.874;2022-12-07T17:22:08;101193.69;;;6.83;100.00
23679;BME280;12016;51.668;6.874;2022-12-07T17:28:12;101200.22;;;6.79;100.00
23679;BME280;12016;51.668;6.874;2022-12-07T17:34:15;101191.03;;;6.87;100.00
23679;BME280;12016;51.668;6.874;2022-12-07T17:40:17;101194.13;;;6.85;100.00
23679;BME280;12016;51.668;6.874;2022-12-07T17:46:19;101186.91;;;6.81;100.00
23679;BME280;12016;51.668;6.874;2022-12-07T17:52:21;101184.38;;;6.76;100.00
23679;BME280;12016;51.668;6.874;2022-12-07T17:58:41;101188.78;;;6.77;100.00
23679;BME280;12016;51.668;6.874;2022-12-07T18:04:43;101179.22;;;6.74;100.00
23679;BME280;12016;51.668;6.874;2022-12-07T18:10:46;101174.31;;;6.80;100.00
23679;BME280;12016;51.668;6.874;2022-12-07T18:16:48;101163.44;;;6.83;100.00
23679;BME280;12016;51.668;6.874;2022-12-07T18:22:50;101167.09;;;7.00;100.00
23679;BME280;12016;51.668;6.874;2022-12-07T18:28:52;101180.38;;;7.10;100.00
23679;BME280;12016;51.668;6.874;2022-12-07T18:34:54;101173.59;;;7.07;100.00
23679;BME280;12016;51.668;6.874;2022-12-07T18:40:56;101162.81;;;7.02;100.00
23679;BME280;12016;51.668;6.874;2022-12-07T18:46:57;101148.00;;;7.07;100.00
23679;BME280;12016;51.668;6.874;2022-12-07T18:53:01;101153.09;;;7.05;100.00
23679;BME280;12016;51.668;6.874;2022-12-07T18:59:04;101144.31;;;7.15;100.00
23679;BME280;12016;51.668;6.874;2022-12-07T19:05:24;101137.47;;;7.09;100.00
23679;BME280;12016;51.668;6.874;2022-12-07T19:11:29;101138.91;;;6.78;100.00
23679;BME280;12016;51.668;6.874;2022-12-07T19:17:50;101145.53;;;6.65;100.00
23679;BME280;12016;51.668;6.874;2022-12-07T19:23:52;101141.50;;;6.63;100.00
23679;BME280;12016;51.668;6.874;2022-12-07T19:29:53;101137.97;;;6.50;100.00
23679;BME280;12016;51.668;6.874;2022-12-07T19:35:55;101128.00;;;6.46;100.00
23679;BME280;12016;51.668;6.874;2022-12-07T19:41:57;101119.41;;;6.47;100.00
23679;BME280;12016;51.668;6.874;2022-12-07T19:47:59;101115.28;;;6.53;100.00
23679;BME280;12016;51.668;6.874;2022-12-07T19:54:01;101109.41;;;6.43;100.00
23679;BME280;12016;51.668;6.874;2022-12-07T20:00:04;101105.06;;;6.42;100.00
23679;BME280;12016;51.668;6.874;2022-12-07T20:06:10;101097.63;;;6.30;100.00
23679;BME280;12016;51.668;6.874;2022-12-07T20:12:11;101097.84;;;6.37;100.00
23679;BME280;12016;51.668;6.874;2022-12-07T20:26:33;101086.97;;;6.29;100.00
23679;BME280;12016;51.668;6.874;2022-12-07T20:32:35;101077.34;;;6.23;100.00
23679;BME280;12016;51.668;6.874;2022-12-07T20:38:49;101078.34;;;6.06;100.00
23679;BME280;12016;51.668;6.874;2022-12-07T20:45:11;101074.22;;;6.12;100.00
23679;BME280;12016;51.668;6.874;2022-12-07T21:05:46;101057.53;;;6.17;100.00
23679;BME280;12016;51.668;6.874;2022-12-07T21:11:51;101051.34;;;6.20;100.00
23679;BME280;12016;51.668;6.874;2022-12-07T21:17:54;101046.41;;;6.26;100.00
23679;BME280;12016;51.668;6.874;2022-12-07T21:23:56;101052.84;;;6.18;100.00
23679;BME280;12016;51.668;6.874;2022-12-07T21:30:03;101058.22;;;6.14;100.00
23679;BME280;12016;51.668;6.874;2022-12-07T21:36:06;101047.69;;;6.16;100.00
23679;BME280;12016;51.668;6.874;2022-12-07T21:42:10;101041.97;;;6.21;100.00
23679;BME280;12016;51.668;6.874;2022-12-07T21:48:11;101054.09;;;6.20;100.00
23679;BME280;12016;51.668;6.874;2022-12-07T21:54:13;101045.06;;;6.20;100.00
23679;BME280;12016;51.668;6.874;2022-12-07T22:00:15;101039.66;;;6.23;100.00
23679;BME280;12016;51.668;6.874;2022-12-07T22:06:20;101037.59;;;6.20;100.00
23679;BME280;12016;51.668;6.874;2022-12-07T22:12:22;101040.56;;;6.27;100.00
23679;BME280;12016;51.668;6.874;2022-12-07T22:18:24;101039.56;;;6.20;100.00
23679;BME280;12016;51.668;6.874;2022-12-07T22:24:25;101020.19;;;6.16;100.00
23679;BME280;12016;51.668;6.874;2022-12-07T22:30:27;101030.84;;;6.18;100.00
23679;BME280;12016;51.668;6.874;2022-12-07T22:36:29;101014.81;;;6.20;100.00
23679;BME280;12016;51.668;6.874;2022-12-07T22:42:31;101000.59;;;6.18;100.00
23679;BME280;12016;51.668;6.874;2022-12-07T22:48:32;100982.75;;;6.12;100.00
23679;BME280;12016;51.668;6.874;2022-12-07T22:54:34;100984.22;;;6.09;100.00
23679;BME280;12016;51.668;6.874;2022-12-07T23:00:36;100966.69;;;6.14;100.00
23679;BME280;12016;51.668;6.874;2022-12-07T23:06:39;100966.47;;;6.19;100.00
23679;BME280;12016;51.668;6.874;2022-12-07T23:12:41;100955.22;;;6.24;100.00
23679;BME280;12016;51.668;6.874;2022-12-07T23:19:01;100949.41;;;6.13;100.00
23679;BME280;12016;51.668;6.874;2022-12-07T23:25:03;100952.84;;;6.10;100.00
23679;BME280;12016;51.668;6.874;2022-12-07T23:31:06;100955.59;;;5.98;100.00
23679;BME280;12016;51.668;6.874;2022-12-07T23:37:09;100942.69;;;5.99;100.00
23679;BME280;12016;51.668;6.874;2022-12-07T23:43:11;100935.00;;;5.92;100.00
23679;BME280;12016;51.668;6.874;2022-12-07T23:49:12;100929.63;;;5.84;100.00
23679;BME280;12016;51.668;6.874;2022-12-07T23:55:14;100929.72;;;5.75;100.00
